Kettering, Ohio
Current Conditions -  °F | °C
As of 8:53 PM on Saturday 22 Nov 2014 (Local Time) from KMGY Reporting Station
Overcast Overcast  
Wind Chill: 52°   Ceiling: 6500
Heat Index: 52°   Visibility: 10mi
Dew Point: 37°   Wind: 8mph
Humidity: 57%   Direction: 200°SSW
Pressure: 30.07"   Gusts: NA
Location:  39.7°N, 84.16°W
Report Text: KMGY 230153Z AUTO 20007KT 10SM BKN065 BKN080 OVC110 11/03 A3007 RMK AO2 SLP186 T01110028
Loading
Personal Weather Stations






























Interactive Weather Map New forecast layout! Learn more

10-Day Weather Forecast

Advertisements
Track Severe Weather on mobile